Airfield :
LOGIN :

Register | Disclaimer

   EN    FR    IT 

 










Legend :    VFR   Marginal VFR   IFR   Intensive IFR   Very Intensive IFR
Visi :
Ceiling :
>= 8 km
>= 3000ft
5 to 8 km
1000 to 3000 ft
1500m to 5 km
500 to 1000 ft
800 to 1500m
200 to 500 ft
< 800m
< 200 ft
Symbols :   Thunderstorms  Fog  Heavy snow  Heavy precipitations  Wind > 20 kt
SIGMETs :     Misc.  Thunderstorms  Icing  Turbulence  Mountain Waves  Volcanic Ashes







- Airport Elevation : 870 ft
- IATA code : ETZ
- Download approach charts


LFJL - Metz Nancy Lorraine

CURRENT METAR :
  • 191400Z AUTO 28004KT 220V350 CAVOK 28/11 Q1017 NOSIG

EXPIRED METARs :
  • 191330Z AUTO 31006KT 270V360 CAVOK 28/11 Q1017 NOSIG
  • 191300Z AUTO 01006KT 300V060 CAVOK 29/12 Q1017 NOSIG
  • 191230Z AUTO 27004KT CAVOK 28/11 Q1017 NOSIG
  • 191200Z AUTO 05007KT 010V100 CAVOK 28/11 Q1017 NOSIG

TAF TAF LFJL
Valid from the 19 at 12:00 until the 20 at 12:00 UTC


191100Z 1912/2012 02006KT CAVOK
PROB30
TEMPO 2009/2012 -SHRA FEW060TCU
No reported NOTAMs for that airfield.



MET'MAP, your aeronautical weather chart ! - Copyright ORBIFLY December 2007 - Disclaimer

ORBIFLY MET'MAP TEAM :

Programming & Development : Alexandra Zaïnal
Concept & Development : Baudouin d'Aumeries
Co-Development & Prog : Marc-Olivier Méhu
Technical & hardware support : Manuel Goepfert

Contact : metmap@orbifly.com




SOURCES & CREDITS :

   NOAA